sensor_id;sensor_type;location;lat;lon;timestamp;P1;durP1;ratioP1;P2;durP2;ratioP2
19016;SDS011;9641;51.494;6.670;2023-05-07T00:00:45;25.30;;;14.87;;
19016;SDS011;9641;51.494;6.670;2023-05-07T00:03:12;18.77;;;14.90;;
19016;SDS011;9641;51.494;6.670;2023-05-07T00:05:39;18.77;;;14.43;;
19016;SDS011;9641;51.494;6.670;2023-05-07T00:08:07;19.03;;;14.50;;
19016;SDS011;9641;51.494;6.670;2023-05-07T00:10:34;19.57;;;14.93;;
19016;SDS011;9641;51.494;6.670;2023-05-07T00:13:01;18.47;;;14.50;;
19016;SDS011;9641;51.494;6.670;2023-05-07T00:15:28;20.30;;;14.93;;
19016;SDS011;9641;51.494;6.670;2023-05-07T00:17:55;22.17;;;15.53;;
19016;SDS011;9641;51.494;6.670;2023-05-07T00:20:22;21.13;;;16.50;;
19016;SDS011;9641;51.494;6.670;2023-05-07T00:22:49;24.67;;;16.43;;
19016;SDS011;9641;51.494;6.670;2023-05-07T00:25:17;21.40;;;18.13;;
19016;SDS011;9641;51.494;6.670;2023-05-07T00:27:44;24.17;;;17.10;;
19016;SDS011;9641;51.494;6.670;2023-05-07T00:30:11;21.83;;;17.57;;
19016;SDS011;9641;51.494;6.670;2023-05-07T00:32:39;27.23;;;18.07;;
19016;SDS011;9641;51.494;6.670;2023-05-07T00:35:06;23.73;;;17.50;;
19016;SDS011;9641;51.494;6.670;2023-05-07T00:37:34;23.07;;;18.50;;
19016;SDS011;9641;51.494;6.670;2023-05-07T00:40:01;23.73;;;18.80;;
19016;SDS011;9641;51.494;6.670;2023-05-07T00:42:31;28.13;;;18.57;;
19016;SDS011;9641;51.494;6.670;2023-05-07T00:44:57;23.60;;;17.27;;
19016;SDS011;9641;51.494;6.670;2023-05-07T00:47:24;23.90;;;17.83;;
19016;SDS011;9641;51.494;6.670;2023-05-07T00:49:51;21.97;;;16.33;;
19016;SDS011;9641;51.494;6.670;2023-05-07T00:52:19;20.70;;;15.30;;
19016;SDS011;9641;51.494;6.670;2023-05-07T00:54:47;23.60;;;17.47;;
19016;SDS011;9641;51.494;6.670;2023-05-07T00:57:14;23.53;;;17.83;;
19016;SDS011;9641;51.494;6.670;2023-05-07T00:59:43;23.33;;;17.10;;
19016;SDS011;9641;51.494;6.670;2023-05-07T01:02:10;23.10;;;17.60;;
19016;SDS011;9641;51.494;6.670;2023-05-07T01:04:37;22.27;;;17.77;;
19016;SDS011;9641;51.494;6.670;2023-05-07T01:07:04;23.37;;;18.20;;
19016;SDS011;9641;51.494;6.670;2023-05-07T01:09:31;27.60;;;19.33;;
19016;SDS011;9641;51.494;6.670;2023-05-07T01:12:00;26.50;;;18.90;;
19016;SDS011;9641;51.494;6.670;2023-05-07T01:14:27;26.73;;;19.83;;
19016;SDS011;9641;51.494;6.670;2023-05-07T01:16:57;27.47;;;20.17;;
19016;SDS011;9641;51.494;6.670;2023-05-07T01:19:25;25.77;;;20.13;;
19016;SDS011;9641;51.494;6.670;2023-05-07T01:21:53;28.80;;;20.30;;
19016;SDS011;9641;51.494;6.670;2023-05-07T01:24:26;29.73;;;20.10;;
19016;SDS011;9641;51.494;6.670;2023-05-07T01:26:53;25.87;;;18.87;;
19016;SDS011;9641;51.494;6.670;2023-05-07T01:29:20;25.77;;;17.03;;
19016;SDS011;9641;51.494;6.670;2023-05-07T01:31:47;23.53;;;17.70;;
19016;SDS011;9641;51.494;6.670;2023-05-07T01:34:16;24.90;;;19.30;;
19016;SDS011;9641;51.494;6.670;2023-05-07T01:36:44;28.27;;;19.13;;
19016;SDS011;9641;51.494;6.670;2023-05-07T01:39:13;25.80;;;18.60;;
19016;SDS011;9641;51.494;6.670;2023-05-07T01:41:42;26.70;;;19.33;;
19016;SDS011;9641;51.494;6.670;2023-05-07T01:44:10;23.97;;;19.43;;
19016;SDS011;9641;51.494;6.670;2023-05-07T01:46:39;28.87;;;19.73;;
19016;SDS011;9641;51.494;6.670;2023-05-07T01:49:06;28.60;;;19.97;;
19016;SDS011;9641;51.494;6.670;2023-05-07T01:51:32;25.57;;;19.43;;
19016;SDS011;9641;51.494;6.670;2023-05-07T01:54:00;27.47;;;18.00;;
19016;SDS011;9641;51.494;6.670;2023-05-07T01:56:27;23.47;;;17.80;;
19016;SDS011;9641;51.494;6.670;2023-05-07T01:58:55;22.67;;;16.97;;
19016;SDS011;9641;51.494;6.670;2023-05-07T02:01:22;25.23;;;18.47;;
19016;SDS011;9641;51.494;6.670;2023-05-07T02:03:49;24.27;;;18.30;;
19016;SDS011;9641;51.494;6.670;2023-05-07T02:06:22;25.50;;;17.40;;
19016;SDS011;9641;51.494;6.670;2023-05-07T02:08:51;26.23;;;19.63;;
19016;SDS011;9641;51.494;6.670;2023-05-07T02:11:18;26.33;;;19.73;;
19016;SDS011;9641;51.494;6.670;2023-05-07T02:13:45;29.50;;;19.40;;
19016;SDS011;9641;51.494;6.670;2023-05-07T02:16:13;25.73;;;19.90;;
19016;SDS011;9641;51.494;6.670;2023-05-07T02:18:40;29.37;;;20.07;;
19016;SDS011;9641;51.494;6.670;2023-05-07T02:21:07;28.87;;;20.63;;
19016;SDS011;9641;51.494;6.670;2023-05-07T02:23:34;28.80;;;20.77;;
19016;SDS011;9641;51.494;6.670;2023-05-07T02:26:01;24.07;;;19.23;;
19016;SDS011;9641;51.494;6.670;2023-05-07T02:28:28;27.00;;;19.10;;
19016;SDS011;9641;51.494;6.670;2023-05-07T02:30:59;28.33;;;19.80;;
19016;SDS011;9641;51.494;6.670;2023-05-07T02:33:28;27.17;;;21.00;;
19016;SDS011;9641;51.494;6.670;2023-05-07T02:35:56;30.37;;;20.63;;
19016;SDS011;9641;51.494;6.670;2023-05-07T02:38:23;32.43;;;22.30;;
19016;SDS011;9641;51.494;6.670;2023-05-07T02:40:50;31.20;;;21.27;;
19016;SDS011;9641;51.494;6.670;2023-05-07T02:43:17;33.53;;;23.63;;
19016;SDS011;9641;51.494;6.670;2023-05-07T02:45:46;29.80;;;22.20;;
19016;SDS011;9641;51.494;6.670;2023-05-07T02:48:14;35.70;;;23.57;;
19016;SDS011;9641;51.494;6.670;2023-05-07T02:50:43;32.40;;;23.73;;
19016;SDS011;9641;51.494;6.670;2023-05-07T02:53:12;37.40;;;25.33;;
19016;SDS011;9641;51.494;6.670;2023-05-07T02:55:38;34.20;;;24.77;;
19016;SDS011;9641;51.494;6.670;2023-05-07T02:58:05;36.77;;;24.30;;
19016;SDS011;9641;51.494;6.670;2023-05-07T03:00:34;33.00;;;25.10;;
19016;SDS011;9641;51.494;6.670;2023-05-07T03:03:22;34.70;;;24.57;;
19016;SDS011;9641;51.494;6.670;2023-05-07T03:05:50;38.10;;;24.83;;
19016;SDS011;9641;51.494;6.670;2023-05-07T03:08:17;41.57;;;26.23;;
19016;SDS011;9641;51.494;6.670;2023-05-07T03:10:44;34.73;;;23.20;;
19016;SDS011;9641;51.494;6.670;2023-05-07T03:13:11;34.87;;;24.73;;
19016;SDS011;9641;51.494;6.670;2023-05-07T03:15:38;38.20;;;25.90;;
19016;SDS011;9641;51.494;6.670;2023-05-07T03:18:05;35.80;;;25.37;;
19016;SDS011;9641;51.494;6.670;2023-05-07T03:20:32;35.13;;;26.73;;
19016;SDS011;9641;51.494;6.670;2023-05-07T03:23:00;43.17;;;27.97;;
19016;SDS011;9641;51.494;6.670;2023-05-07T03:25:27;43.63;;;27.10;;
19016;SDS011;9641;51.494;6.670;2023-05-07T03:27:55;36.00;;;25.50;;
19016;SDS011;9641;51.494;6.670;2023-05-07T03:30:26;38.10;;;26.03;;
19016;SDS011;9641;51.494;6.670;2023-05-07T03:32:52;40.30;;;27.13;;
19016;SDS011;9641;51.494;6.670;2023-05-07T03:35:19;40.67;;;27.27;;
19016;SDS011;9641;51.494;6.670;2023-05-07T03:37:46;39.43;;;27.10;;
19016;SDS011;9641;51.494;6.670;2023-05-07T03:40:15;36.03;;;26.23;;
19016;SDS011;9641;51.494;6.670;2023-05-07T03:42:47;38.33;;;24.80;;
19016;SDS011;9641;51.494;6.670;2023-05-07T03:45:16;41.67;;;26.90;;
19016;SDS011;9641;51.494;6.670;2023-05-07T03:47:48;35.33;;;25.10;;
19016;SDS011;9641;51.494;6.670;2023-05-07T03:50:17;40.77;;;25.00;;
19016;SDS011;9641;51.494;6.670;2023-05-07T03:52:44;35.50;;;25.63;;
19016;SDS011;9641;51.494;6.670;2023-05-07T03:55:15;34.73;;;23.00;;
19016;SDS011;9641;51.494;6.670;2023-05-07T03:57:47;35.80;;;25.53;;
19016;SDS011;9641;51.494;6.670;2023-05-07T04:00:15;42.00;;;26.80;;
19016;SDS011;9641;51.494;6.670;2023-05-07T04:02:48;38.90;;;26.30;;
19016;SDS011;9641;51.494;6.670;2023-05-07T04:05:21;39.93;;;27.47;;
19016;SDS011;9641;51.494;6.670;2023-05-07T04:07:51;38.43;;;26.30;;
19016;SDS011;9641;51.494;6.670;2023-05-07T04:10:26;41.07;;;28.27;;
19016;SDS011;9641;51.494;6.670;2023-05-07T04:12:55;35.53;;;25.53;;
19016;SDS011;9641;51.494;6.670;2023-05-07T04:15:24;35.77;;;25.93;;
19016;SDS011;9641;51.494;6.670;2023-05-07T04:17:51;44.80;;;30.30;;
19016;SDS011;9641;51.494;6.670;2023-05-07T04:20:21;45.23;;;30.83;;
19016;SDS011;9641;51.494;6.670;2023-05-07T04:22:54;46.27;;;31.97;;
19016;SDS011;9641;51.494;6.670;2023-05-07T04:25:22;47.20;;;31.53;;
19016;SDS011;9641;51.494;6.670;2023-05-07T04:27:54;42.17;;;31.07;;
19016;SDS011;9641;51.494;6.670;2023-05-07T04:30:25;48.47;;;30.97;;
19016;SDS011;9641;51.494;6.670;2023-05-07T04:32:52;46.57;;;29.27;;
19016;SDS011;9641;51.494;6.670;2023-05-07T04:35:20;37.10;;;27.90;;
19016;SDS011;9641;51.494;6.670;2023-05-07T04:37:48;42.97;;;30.13;;
19016;SDS011;9641;51.494;6.670;2023-05-07T04:40:15;39.73;;;26.73;;
19016;SDS011;9641;51.494;6.670;2023-05-07T04:42:42;40.17;;;28.97;;
19016;SDS011;9641;51.494;6.670;2023-05-07T04:45:11;41.23;;;27.47;;
19016;SDS011;9641;51.494;6.670;2023-05-07T04:47:40;42.30;;;28.53;;
19016;SDS011;9641;51.494;6.670;2023-05-07T04:50:07;46.13;;;29.57;;
19016;SDS011;9641;51.494;6.670;2023-05-07T04:52:35;41.43;;;28.63;;
19016;SDS011;9641;51.494;6.670;2023-05-07T04:55:03;41.50;;;28.30;;
19016;SDS011;9641;51.494;6.670;2023-05-07T04:57:36;48.57;;;30.77;;
19016;SDS011;9641;51.494;6.670;2023-05-07T05:00:05;48.23;;;32.33;;
19016;SDS011;9641;51.494;6.670;2023-05-07T05:02:36;49.47;;;32.37;;
19016;SDS011;9641;51.494;6.670;2023-05-07T05:05:05;48.97;;;30.23;;
19016;SDS011;9641;51.494;6.670;2023-05-07T05:07:32;41.47;;;30.40;;
19016;SDS011;9641;51.494;6.670;2023-05-07T05:09:59;47.47;;;32.33;;
19016;SDS011;9641;51.494;6.670;2023-05-07T05:12:26;43.17;;;30.17;;
19016;SDS011;9641;51.494;6.670;2023-05-07T05:14:53;47.33;;;32.43;;
19016;SDS011;9641;51.494;6.670;2023-05-07T05:17:20;45.10;;;31.33;;
19016;SDS011;9641;51.494;6.670;2023-05-07T05:19:48;46.40;;;31.00;;
19016;SDS011;9641;51.494;6.670;2023-05-07T05:22:16;44.43;;;32.30;;
19016;SDS011;9641;51.494;6.670;2023-05-07T05:24:42;46.67;;;30.30;;
19016;SDS011;9641;51.494;6.670;2023-05-07T05:27:09;46.77;;;31.23;;
19016;SDS011;9641;51.494;6.670;2023-05-07T05:29:36;44.63;;;30.80;;
19016;SDS011;9641;51.494;6.670;2023-05-07T05:32:03;48.53;;;31.57;;
19016;SDS011;9641;51.494;6.670;2023-05-07T05:34:30;39.40;;;27.77;;
19016;SDS011;9641;51.494;6.670;2023-05-07T05:37:00;40.93;;;27.53;;
19016;SDS011;9641;51.494;6.670;2023-05-07T05:39:27;43.47;;;28.40;;
19016;SDS011;9641;51.494;6.670;2023-05-07T05:41:54;35.60;;;26.40;;
19016;SDS011;9641;51.494;6.670;2023-05-07T05:44:22;36.97;;;25.93;;
19016;SDS011;9641;51.494;6.670;2023-05-07T05:46:49;33.90;;;24.53;;
19016;SDS011;9641;51.494;6.670;2023-05-07T05:49:16;37.77;;;24.87;;
19016;SDS011;9641;51.494;6.670;2023-05-07T05:51:43;31.67;;;21.67;;
19016;SDS011;9641;51.494;6.670;2023-05-07T05:54:13;32.73;;;21.97;;
19016;SDS011;9641;51.494;6.670;2023-05-07T05:56:41;31.20;;;20.23;;
19016;SDS011;9641;51.494;6.670;2023-05-07T05:59:08;27.07;;;17.10;;
19016;SDS011;9641;51.494;6.670;2023-05-07T06:01:36;26.00;;;16.13;;
19016;SDS011;9641;51.494;6.670;2023-05-07T06:04:04;21.63;;;15.23;;
19016;SDS011;9641;51.494;6.670;2023-05-07T06:06:31;23.30;;;14.50;;
19016;SDS011;9641;51.494;6.670;2023-05-07T06:08:58;23.03;;;13.70;;
19016;SDS011;9641;51.494;6.670;2023-05-07T06:11:34;20.73;;;13.07;;
19016;SDS011;9641;51.494;6.670;2023-05-07T06:14:01;22.47;;;14.30;;
19016;SDS011;9641;51.494;6.670;2023-05-07T06:16:30;17.97;;;12.37;;
19016;SDS011;9641;51.494;6.670;2023-05-07T06:18:57;22.13;;;11.93;;
19016;SDS011;9641;51.494;6.670;2023-05-07T06:21:24;15.53;;;10.87;;
19016;SDS011;9641;51.494;6.670;2023-05-07T06:23:51;14.03;;;9.73;;
19016;SDS011;9641;51.494;6.670;2023-05-07T06:26:20;18.17;;;11.27;;
19016;SDS011;9641;51.494;6.670;2023-05-07T06:28:48;15.33;;;10.77;;
19016;SDS011;9641;51.494;6.670;2023-05-07T06:31:17;29.27;;;15.90;;
19016;SDS011;9641;51.494;6.670;2023-05-07T06:33:54;24.70;;;16.17;;
19016;SDS011;9641;51.494;6.670;2023-05-07T06:36:25;25.93;;;15.60;;
19016;SDS011;9641;51.494;6.670;2023-05-07T06:38:55;24.20;;;15.80;;
19016;SDS011;9641;51.494;6.670;2023-05-07T06:41:22;23.40;;;14.53;;
19016;SDS011;9641;51.494;6.670;2023-05-07T06:43:52;25.83;;;14.73;;
19016;SDS011;9641;51.494;6.670;2023-05-07T06:46:30;17.13;;;11.73;;
19016;SDS011;9641;51.494;6.670;2023-05-07T06:48:57;19.70;;;12.77;;
19016;SDS011;9641;51.494;6.670;2023-05-07T06:51:26;21.03;;;12.20;;
19016;SDS011;9641;51.494;6.670;2023-05-07T06:53:53;31.83;;;11.93;;
19016;SDS011;9641;51.494;6.670;2023-05-07T06:56:20;22.67;;;11.90;;
19016;SDS011;9641;51.494;6.670;2023-05-07T06:58:48;16.23;;;11.27;;
19016;SDS011;9641;51.494;6.670;2023-05-07T07:01:17;15.73;;;11.33;;
19016;SDS011;9641;51.494;6.670;2023-05-07T07:03:45;17.10;;;10.77;;
19016;SDS011;9641;51.494;6.670;2023-05-07T07:06:12;17.10;;;10.80;;
19016;SDS011;9641;51.494;6.670;2023-05-07T07:08:40;13.13;;;9.57;;
19016;SDS011;9641;51.494;6.670;2023-05-07T07:11:10;14.03;;;8.57;;
19016;SDS011;9641;51.494;6.670;2023-05-07T07:13:38;16.17;;;8.87;;
19016;SDS011;9641;51.494;6.670;2023-05-07T07:16:05;17.83;;;7.90;;
19016;SDS011;9641;51.494;6.670;2023-05-07T07:18:34;13.20;;;7.40;;
19016;SDS011;9641;51.494;6.670;2023-05-07T07:21:01;13.03;;;7.53;;
19016;SDS011;9641;51.494;6.670;2023-05-07T07:23:28;12.00;;;7.37;;
19016;SDS011;9641;51.494;6.670;2023-05-07T07:25:55;13.53;;;7.97;;
19016;SDS011;9641;51.494;6.670;2023-05-07T07:28:32;16.87;;;8.50;;
19016;SDS011;9641;51.494;6.670;2023-05-07T07:31:00;13.10;;;7.83;;
19016;SDS011;9641;51.494;6.670;2023-05-07T07:33:29;12.38;;;8.00;;
19016;SDS011;9641;51.494;6.670;2023-05-07T07:35:57;15.25;;;8.60;;
19016;SDS011;9641;51.494;6.670;2023-05-07T07:38:25;14.53;;;8.47;;
19016;SDS011;9641;51.494;6.670;2023-05-07T07:40:53;16.83;;;8.07;;
19016;SDS011;9641;51.494;6.670;2023-05-07T07:46:12;7.50;;;5.23;;
19016;SDS011;9641;51.494;6.670;2023-05-07T07:48:41;9.03;;;5.50;;
19016;SDS011;9641;51.494;6.670;2023-05-07T07:51:10;11.20;;;6.43;;
19016;SDS011;9641;51.494;6.670;2023-05-07T07:53:36;11.10;;;6.68;;
19016;SDS011;9641;51.494;6.670;2023-05-07T07:56:04;9.55;;;5.68;;
19016;SDS011;9641;51.494;6.670;2023-05-07T07:58:48;11.40;;;6.90;;
19016;SDS011;9641;51.494;6.670;2023-05-07T08:01:15;11.63;;;7.35;;
19016;SDS011;9641;51.494;6.670;2023-05-07T08:03:43;9.82;;;6.57;;
19016;SDS011;9641;51.494;6.670;2023-05-07T08:06:12;9.25;;;5.05;;
19016;SDS011;9641;51.494;6.670;2023-05-07T08:08:40;8.05;;;4.57;;
19016;SDS011;9641;51.494;6.670;2023-05-07T08:11:07;7.28;;;4.30;;
19016;SDS011;9641;51.494;6.670;2023-05-07T08:13:35;11.48;;;4.80;;
19016;SDS011;9641;51.494;6.670;2023-05-07T08:16:05;6.70;;;4.13;;
19016;SDS011;9641;51.494;6.670;2023-05-07T08:18:33;6.78;;;4.63;;
19016;SDS011;9641;51.494;6.670;2023-05-07T08:21:01;7.80;;;4.18;;
19016;SDS011;9641;51.494;6.670;2023-05-07T08:23:31;9.25;;;3.90;;
19016;SDS011;9641;51.494;6.670;2023-05-07T08:25:59;8.02;;;3.83;;
19016;SDS011;9641;51.494;6.670;2023-05-07T08:28:27;6.65;;;3.65;;
19016;SDS011;9641;51.494;6.670;2023-05-07T08:30:54;3.83;;;3.33;;
19016;SDS011;9641;51.494;6.670;2023-05-07T08:33:22;6.72;;;3.72;;
19016;SDS011;9641;51.494;6.670;2023-05-07T08:35:49;6.50;;;4.20;;
19016;SDS011;9641;51.494;6.670;2023-05-07T08:38:16;5.80;;;3.53;;
19016;SDS011;9641;51.494;6.670;2023-05-07T08:40:47;7.30;;;3.60;;
19016;SDS011;9641;51.494;6.670;2023-05-07T08:43:18;6.97;;;3.28;;
19016;SDS011;9641;51.494;6.670;2023-05-07T08:45:45;4.30;;;2.92;;
19016;SDS011;9641;51.494;6.670;2023-05-07T08:48:17;5.07;;;3.20;;
19016;SDS011;9641;51.494;6.670;2023-05-07T08:50:55;7.55;;;3.45;;
19016;SDS011;9641;51.494;6.670;2023-05-07T08:53:25;4.38;;;3.40;;
19016;SDS011;9641;51.494;6.670;2023-05-07T08:55:57;9.10;;;3.67;;
19016;SDS011;9641;51.494;6.670;2023-05-07T08:58:25;7.32;;;4.00;;
19016;SDS011;9641;51.494;6.670;2023-05-07T09:00:52;9.25;;;3.50;;
19016;SDS011;9641;51.494;6.670;2023-05-07T09:03:23;8.05;;;4.53;;
19016;SDS011;9641;51.494;6.670;2023-05-07T09:05:56;11.75;;;4.40;;
19016;SDS011;9641;51.494;6.670;2023-05-07T09:08:27;6.70;;;4.05;;
19016;SDS011;9641;51.494;6.670;2023-05-07T09:11:00;6.22;;;3.75;;
19016;SDS011;9641;51.494;6.670;2023-05-07T09:13:28;9.32;;;4.32;;
19016;SDS011;9641;51.494;6.670;2023-05-07T09:15:57;6.75;;;4.03;;
19016;SDS011;9641;51.494;6.670;2023-05-07T09:18:26;6.82;;;3.13;;
19016;SDS011;9641;51.494;6.670;2023-05-07T09:20:58;9.20;;;3.65;;
19016;SDS011;9641;51.494;6.670;2023-05-07T09:23:31;6.53;;;3.63;;
19016;SDS011;9641;51.494;6.670;2023-05-07T09:26:02;5.38;;;3.42;;
19016;SDS011;9641;51.494;6.670;2023-05-07T09:28:38;11.80;;;4.00;;
19016;SDS011;9641;51.494;6.670;2023-05-07T09:31:11;4.97;;;3.03;;
19016;SDS011;9641;51.494;6.670;2023-05-07T09:33:38;6.03;;;3.47;;
19016;SDS011;9641;51.494;6.670;2023-05-07T09:36:08;6.03;;;3.67;;
19016;SDS011;9641;51.494;6.670;2023-05-07T09:38:40;7.32;;;3.42;;
19016;SDS011;9641;51.494;6.670;2023-05-07T09:41:09;5.13;;;3.15;;
19016;SDS011;9641;51.494;6.670;2023-05-07T09:43:45;4.30;;;3.10;;
19016;SDS011;9641;51.494;6.670;2023-05-07T09:46:15;4.55;;;2.97;;
19016;SDS011;9641;51.494;6.670;2023-05-07T09:48:51;3.17;;;2.88;;
19016;SDS011;9641;51.494;6.670;2023-05-07T09:51:22;4.15;;;2.92;;
19016;SDS011;9641;51.494;6.670;2023-05-07T09:53:56;3.78;;;3.47;;
19016;SDS011;9641;51.494;6.670;2023-05-07T09:56:27;3.55;;;2.83;;
19016;SDS011;9641;51.494;6.670;2023-05-07T09:58:57;5.47;;;3.03;;
19016;SDS011;9641;51.494;6.670;2023-05-07T10:01:31;6.93;;;3.38;;
19016;SDS011;9641;51.494;6.670;2023-05-07T10:04:01;5.40;;;3.03;;
19016;SDS011;9641;51.494;6.670;2023-05-07T10:06:30;4.75;;;3.25;;
19016;SDS011;9641;51.494;6.670;2023-05-07T10:08:59;4.32;;;2.80;;
19016;SDS011;9641;51.494;6.670;2023-05-07T10:11:28;2.95;;;2.65;;
19016;SDS011;9641;51.494;6.670;2023-05-07T10:13:55;9.52;;;3.47;;
19016;SDS011;9641;51.494;6.670;2023-05-07T10:16:23;6.70;;;3.30;;
19016;SDS011;9641;51.494;6.670;2023-05-07T10:18:51;3.78;;;2.75;;
19016;SDS011;9641;51.494;6.670;2023-05-07T10:21:22;3.55;;;2.78;;
19016;SDS011;9641;51.494;6.670;2023-05-07T10:23:56;5.07;;;2.80;;
19016;SDS011;9641;51.494;6.670;2023-05-07T10:26:29;4.15;;;2.80;;
19016;SDS011;9641;51.494;6.670;2023-05-07T10:28:58;3.67;;;2.80;;
19016;SDS011;9641;51.494;6.670;2023-05-07T10:34:19;8.32;;;3.70;;
19016;SDS011;9641;51.494;6.670;2023-05-07T10:36:50;6.55;;;3.45;;
19016;SDS011;9641;51.494;6.670;2023-05-07T10:39:19;3.63;;;2.80;;
19016;SDS011;9641;51.494;6.670;2023-05-07T10:41:48;5.18;;;2.85;;
19016;SDS011;9641;51.494;6.670;2023-05-07T10:44:25;6.47;;;2.63;;
19016;SDS011;9641;51.494;6.670;2023-05-07T10:47:07;7.13;;;3.08;;
19016;SDS011;9641;51.494;6.670;2023-05-07T10:56:24;6.05;;;3.10;;
19016;SDS011;9641;51.494;6.670;2023-05-07T11:02:24;4.32;;;2.75;;
19016;SDS011;9641;51.494;6.670;2023-05-07T11:05:40;5.55;;;2.53;;
19016;SDS011;9641;51.494;6.670;2023-05-07T11:08:22;5.38;;;2.75;;
19016;SDS011;9641;51.494;6.670;2023-05-07T11:11:03;6.53;;;3.25;;
19016;SDS011;9641;51.494;6.670;2023-05-07T11:13:45;2.30;;;2.10;;
19016;SDS011;9641;51.494;6.670;2023-05-07T11:16:35;3.63;;;2.63;;
19016;SDS011;9641;51.494;6.670;2023-05-07T11:19:13;4.07;;;2.28;;
19016;SDS011;9641;51.494;6.670;2023-05-07T11:21:44;4.05;;;2.30;;
19016;SDS011;9641;51.494;6.670;2023-05-07T11:24:22;5.97;;;2.30;;
19016;SDS011;9641;51.494;6.670;2023-05-07T11:26:54;6.35;;;2.15;;
19016;SDS011;9641;51.494;6.670;2023-05-07T11:29:23;3.63;;;2.10;;
19016;SDS011;9641;51.494;6.670;2023-05-07T11:31:55;2.97;;;1.80;;
19016;SDS011;9641;51.494;6.670;2023-05-07T11:34:29;8.07;;;2.25;;
19016;SDS011;9641;51.494;6.670;2023-05-07T11:36:57;2.92;;;1.92;;
19016;SDS011;9641;51.494;6.670;2023-05-07T11:39:38;6.63;;;2.55;;
19016;SDS011;9641;51.494;6.670;2023-05-07T11:42:05;2.58;;;1.90;;
19016;SDS011;9641;51.494;6.670;2023-05-07T11:44:40;4.13;;;2.20;;
19016;SDS011;9641;51.494;6.670;2023-05-07T11:47:09;3.90;;;2.50;;
19016;SDS011;9641;51.494;6.670;2023-05-07T11:49:37;2.92;;;1.95;;
19016;SDS011;9641;51.494;6.670;2023-05-07T11:52:05;4.07;;;2.38;;
19016;SDS011;9641;51.494;6.670;2023-05-07T11:54:34;6.22;;;2.10;;
19016;SDS011;9641;51.494;6.670;2023-05-07T11:57:03;3.97;;;2.40;;
19016;SDS011;9641;51.494;6.670;2023-05-07T11:59:30;4.75;;;2.40;;
19016;SDS011;9641;51.494;6.670;2023-05-07T12:02:05;4.32;;;2.30;;
19016;SDS011;9641;51.494;6.670;2023-05-07T12:04:32;6.32;;;2.40;;
19016;SDS011;9641;51.494;6.670;2023-05-07T12:07:00;3.90;;;2.13;;
19016;SDS011;9641;51.494;6.670;2023-05-07T12:09:27;4.65;;;2.17;;
19016;SDS011;9641;51.494;6.670;2023-05-07T12:11:54;3.88;;;1.90;;
19016;SDS011;9641;51.494;6.670;2023-05-07T12:14:21;3.95;;;2.38;;
19016;SDS011;9641;51.494;6.670;2023-05-07T12:16:53;3.67;;;1.98;;
19016;SDS011;9641;51.494;6.670;2023-05-07T12:19:20;2.03;;;1.60;;
19016;SDS011;9641;51.494;6.670;2023-05-07T12:21:47;3.80;;;1.70;;
19016;SDS011;9641;51.494;6.670;2023-05-07T12:24:16;4.03;;;2.00;;
19016;SDS011;9641;51.494;6.670;2023-05-07T12:26:43;4.72;;;2.10;;
19016;SDS011;9641;51.494;6.670;2023-05-07T12:29:10;2.55;;;1.58;;
19016;SDS011;9641;51.494;6.670;2023-05-07T12:31:39;3.72;;;1.80;;
19016;SDS011;9641;51.494;6.670;2023-05-07T12:34:06;3.00;;;1.75;;
19016;SDS011;9641;51.494;6.670;2023-05-07T12:36:37;2.28;;;1.80;;
19016;SDS011;9641;51.494;6.670;2023-05-07T12:39:04;2.58;;;1.80;;
19016;SDS011;9641;51.494;6.670;2023-05-07T12:41:43;3.65;;;1.88;;
19016;SDS011;9641;51.494;6.670;2023-05-07T12:44:19;6.30;;;1.67;;
19016;SDS011;9641;51.494;6.670;2023-05-07T12:46:48;3.45;;;1.60;;
19016;SDS011;9641;51.494;6.670;2023-05-07T12:49:15;3.85;;;1.88;;
19016;SDS011;9641;51.494;6.670;2023-05-07T12:51:43;3.53;;;1.88;;
19016;SDS011;9641;51.494;6.670;2023-05-07T12:54:09;2.65;;;1.98;;
19016;SDS011;9641;51.494;6.670;2023-05-07T12:56:39;3.60;;;2.05;;
19016;SDS011;9641;51.494;6.670;2023-05-07T12:59:06;3.78;;;2.28;;
19016;SDS011;9641;51.494;6.670;2023-05-07T13:01:33;2.95;;;2.08;;
19016;SDS011;9641;51.494;6.670;2023-05-07T13:04:01;5.15;;;2.28;;
19016;SDS011;9641;51.494;6.670;2023-05-07T13:06:30;2.58;;;2.38;;
19016;SDS011;9641;51.494;6.670;2023-05-07T13:08:57;2.75;;;2.25;;
19016;SDS011;9641;51.494;6.670;2023-05-07T13:11:24;3.17;;;2.20;;
19016;SDS011;9641;51.494;6.670;2023-05-07T13:13:56;3.65;;;2.10;;
19016;SDS011;9641;51.494;6.670;2023-05-07T13:16:24;3.15;;;2.20;;
19016;SDS011;9641;51.494;6.670;2023-05-07T13:18:51;3.72;;;2.30;;
19016;SDS011;9641;51.494;6.670;2023-05-07T13:21:18;3.28;;;2.33;;
19016;SDS011;9641;51.494;6.670;2023-05-07T13:23:49;2.90;;;2.40;;
19016;SDS011;9641;51.494;6.670;2023-05-07T13:26:16;2.92;;;2.30;;
19016;SDS011;9641;51.494;6.670;2023-05-07T13:28:43;3.28;;;2.40;;
19016;SDS011;9641;51.494;6.670;2023-05-07T13:31:11;6.78;;;2.97;;
19016;SDS011;9641;51.494;6.670;2023-05-07T13:33:38;4.40;;;2.63;;
19016;SDS011;9641;51.494;6.670;2023-05-07T13:36:05;3.10;;;2.63;;
19016;SDS011;9641;51.494;6.670;2023-05-07T13:38:32;4.47;;;3.00;;
19016;SDS011;9641;51.494;6.670;2023-05-07T13:40:59;2.72;;;2.47;;
19016;SDS011;9641;51.494;6.670;2023-05-07T13:43:26;3.28;;;2.58;;
19016;SDS011;9641;51.494;6.670;2023-05-07T13:45:53;4.72;;;2.70;;
19016;SDS011;9641;51.494;6.670;2023-05-07T13:48:21;4.13;;;2.90;;
19016;SDS011;9641;51.494;6.670;2023-05-07T13:50:48;3.00;;;2.75;;
19016;SDS011;9641;51.494;6.670;2023-05-07T13:53:15;5.38;;;2.67;;
19016;SDS011;9641;51.494;6.670;2023-05-07T13:55:43;3.75;;;2.50;;
19016;SDS011;9641;51.494;6.670;2023-05-07T13:58:10;3.35;;;2.58;;
19016;SDS011;9641;51.494;6.670;2023-05-07T14:00:37;4.32;;;2.90;;
19016;SDS011;9641;51.494;6.670;2023-05-07T14:03:05;4.35;;;3.47;;
19016;SDS011;9641;51.494;6.670;2023-05-07T14:05:33;6.40;;;2.92;;
19016;SDS011;9641;51.494;6.670;2023-05-07T14:08:00;5.05;;;2.85;;
19016;SDS011;9641;51.494;6.670;2023-05-07T14:10:28;6.35;;;3.90;;
19016;SDS011;9641;51.494;6.670;2023-05-07T14:12:56;5.78;;;3.63;;
19016;SDS011;9641;51.494;6.670;2023-05-07T14:15:23;6.95;;;3.50;;
19016;SDS011;9641;51.494;6.670;2023-05-07T14:17:50;5.38;;;4.10;;
19016;SDS011;9641;51.494;6.670;2023-05-07T14:20:17;4.78;;;3.90;;
19016;SDS011;9641;51.494;6.670;2023-05-07T14:22:45;4.80;;;3.80;;
19016;SDS011;9641;51.494;6.670;2023-05-07T14:25:12;6.15;;;4.40;;
19016;SDS011;9641;51.494;6.670;2023-05-07T14:27:40;6.25;;;4.53;;
19016;SDS011;9641;51.494;6.670;2023-05-07T14:30:07;8.18;;;4.53;;
19016;SDS011;9641;51.494;6.670;2023-05-07T14:32:34;5.90;;;4.53;;
19016;SDS011;9641;51.494;6.670;2023-05-07T14:35:01;6.05;;;4.00;;
19016;SDS011;9641;51.494;6.670;2023-05-07T14:37:29;4.38;;;3.80;;
19016;SDS011;9641;51.494;6.670;2023-05-07T14:39:57;5.88;;;3.83;;
19016;SDS011;9641;51.494;6.670;2023-05-07T14:42:24;4.40;;;3.72;;
19016;SDS011;9641;51.494;6.670;2023-05-07T14:44:51;4.95;;;3.95;;
19016;SDS011;9641;51.494;6.670;2023-05-07T14:47:18;5.68;;;3.38;;
19016;SDS011;9641;51.494;6.670;2023-05-07T14:49:45;8.60;;;3.65;;
19016;SDS011;9641;51.494;6.670;2023-05-07T14:52:12;4.65;;;3.60;;
19016;SDS011;9641;51.494;6.670;2023-05-07T14:54:39;8.32;;;3.80;;
19016;SDS011;9641;51.494;6.670;2023-05-07T14:57:08;5.18;;;3.65;;
19016;SDS011;9641;51.494;6.670;2023-05-07T14:59:38;9.85;;;3.90;;
19016;SDS011;9641;51.494;6.670;2023-05-07T15:02:07;9.07;;;4.13;;
19016;SDS011;9641;51.494;6.670;2023-05-07T15:04:36;9.80;;;4.32;;
19016;SDS011;9641;51.494;6.670;2023-05-07T15:07:04;7.53;;;4.10;;
19016;SDS011;9641;51.494;6.670;2023-05-07T15:09:32;5.55;;;3.80;;
19016;SDS011;9641;51.494;6.670;2023-05-07T15:11:59;4.43;;;4.03;;
19016;SDS011;9641;51.494;6.670;2023-05-07T15:14:28;6.35;;;3.65;;